createdAt,value
2018-06-10T00:00:23.206Z,100887.19
2018-06-10T00:01:27.747Z,100889.89
2018-06-10T00:02:32.108Z,100897.36
2018-06-10T00:03:36.416Z,100898.71
2018-06-10T00:04:40.793Z,100889.77
2018-06-10T00:05:45.491Z,100897.36
2018-06-10T00:06:50.089Z,100899.55
2018-06-10T00:07:54.321Z,100900.69
2018-06-10T00:08:58.698Z,100899.85
2018-06-10T00:10:03.020Z,100894.95
2018-06-10T00:11:07.573Z,100901.41
2018-06-10T00:12:11.819Z,100902.09
2018-06-10T00:13:16.251Z,100901.46
2018-06-10T00:14:20.490Z,100903.53
2018-06-10T00:15:24.982Z,100910.28
2018-06-10T00:16:29.301Z,100910.79
2018-06-10T00:17:33.766Z,100915.14
2018-06-10T00:18:38.247Z,100919.40
2018-06-10T00:19:42.519Z,100920.75
2018-06-10T00:20:46.787Z,100917.41
2018-06-10T00:21:51.210Z,100916.62
2018-06-10T00:22:55.411Z,100918.86
2018-06-10T00:23:59.673Z,100908.44
2018-06-10T00:25:03.962Z,100906.00
2018-06-10T00:26:08.283Z,100902.00
2018-06-10T00:27:12.664Z,100908.08
2018-06-10T00:28:21.087Z,100898.50
2018-06-10T00:29:25.518Z,100891.80
2018-06-10T00:30:29.837Z,100888.44
2018-06-10T00:31:34.212Z,100888.30
2018-06-10T00:32:38.646Z,100894.08
2018-06-10T00:33:42.906Z,100896.65
2018-06-10T00:34:47.324Z,100897.00
2018-06-10T00:35:51.521Z,100901.76
2018-06-10T00:36:56.056Z,100908.50
2018-06-10T00:38:00.236Z,100909.52
2018-06-10T00:39:06.610Z,100909.22
2018-06-10T00:40:11.111Z,100903.81
2018-06-10T00:41:15.612Z,100909.22
2018-06-10T00:42:19.937Z,100902.47
2018-06-10T00:43:24.250Z,100904.13
2018-06-10T00:44:28.522Z,100902.59
2018-06-10T00:45:32.843Z,100895.01
2018-06-10T00:46:37.190Z,100895.34
2018-06-10T00:47:41.740Z,100898.05
2018-06-10T00:48:45.979Z,100890.79
2018-06-10T00:49:50.208Z,100890.79
2018-06-10T00:50:54.604Z,100895.64
2018-06-10T00:51:58.855Z,100887.05
2018-06-10T00:53:03.160Z,100888.59
2018-06-10T00:54:07.413Z,100881.52
2018-06-10T00:55:11.655Z,100883.70
2018-06-10T00:56:27.354Z,100886.74
2018-06-10T00:57:31.646Z,100883.58
2018-06-10T00:58:36.160Z,100887.63
2018-06-10T00:59:40.810Z,100886.58
2018-06-10T01:00:45.365Z,100878.48
2018-06-10T01:01:49.847Z,100885.06
2018-06-10T01:02:54.287Z,100880.80
2018-06-10T01:03:58.823Z,100877.94
2018-06-10T01:05:02.985Z,100872.88
2018-06-10T01:06:07.447Z,100869.00
2018-06-10T01:07:12.268Z,100863.59
2018-06-10T01:08:16.699Z,100859.22
2018-06-10T01:09:20.986Z,100863.27
2018-06-10T01:10:25.263Z,100858.92
2018-06-10T01:11:29.519Z,100856.22
2018-06-10T01:12:33.984Z,100861.62
2018-06-10T01:13:38.207Z,100856.73
2018-06-10T01:14:42.439Z,100860.06
2018-06-10T01:15:46.759Z,100854.16
2018-06-10T01:16:51.216Z,100859.55
2018-06-10T01:17:55.670Z,100859.05
2018-06-10T01:18:59.929Z,100855.50
2018-06-10T01:20:04.325Z,100854.16
2018-06-10T01:21:08.579Z,100856.86
2018-06-10T01:22:12.831Z,100848.76
2018-06-10T01:23:17.417Z,100855.00
2018-06-10T01:24:21.683Z,100851.45
2018-06-10T01:25:25.974Z,100855.50
2018-06-10T01:26:35.584Z,100852.12
2018-06-10T01:27:40.084Z,100854.48
2018-06-10T01:28:44.291Z,100849.94
2018-06-10T01:29:48.820Z,100852.42
2018-06-10T01:30:53.286Z,100853.09
2018-06-10T01:31:57.456Z,100851.74
2018-06-10T01:33:01.669Z,100853.91
2018-06-10T01:34:05.928Z,100860.48
2018-06-10T01:35:10.158Z,100863.51
2018-06-10T01:36:14.679Z,100863.81
2018-06-10T01:37:18.922Z,100865.16
2018-06-10T01:38:23.211Z,100866.84
2018-06-10T01:39:27.729Z,100863.81
2018-06-10T01:40:31.995Z,100868.91
2018-06-10T01:41:36.415Z,100867.55
2018-06-10T01:42:40.857Z,100866.20
2018-06-10T01:43:45.092Z,100864.52
2018-06-10T01:44:49.384Z,100871.27
2018-06-10T01:45:53.810Z,100863.34
2018-06-10T01:46:58.172Z,100862.00
2018-06-10T01:48:02.446Z,100867.60
2018-06-10T01:49:06.748Z,100861.03
2018-06-10T01:50:11.020Z,100857.52
2018-06-10T01:51:15.387Z,100862.25
2018-06-10T01:52:19.657Z,100858.70
2018-06-10T01:53:24.170Z,100857.56
2018-06-10T01:54:28.407Z,100851.84
2018-06-10T01:55:32.687Z,100861.62
2018-06-10T01:56:36.999Z,100859.93
2018-06-10T01:57:41.247Z,100851.00
2018-06-10T01:58:45.543Z,100852.85
2018-06-10T01:59:50.232Z,100852.85
2018-06-10T02:00:54.832Z,100850.70
2018-06-10T02:01:59.065Z,100852.05
2018-06-10T02:03:03.328Z,100848.00
2018-06-10T02:04:07.696Z,100851.50
2018-06-10T02:05:11.891Z,100847.66
2018-06-10T02:06:16.126Z,100844.13
2018-06-10T02:07:20.348Z,100840.08
2018-06-10T02:08:24.748Z,100835.39
2018-06-10T02:09:28.954Z,100828.64
2018-06-10T02:10:33.235Z,100834.34
2018-06-10T02:11:37.523Z,100832.70
2018-06-10T02:12:41.731Z,100827.80
2018-06-10T02:13:46.180Z,100823.76
2018-06-10T02:14:50.761Z,100826.25
2018-06-10T02:15:55.062Z,100825.41
2018-06-10T02:16:59.291Z,100822.71
2018-06-10T02:18:03.600Z,100815.97
2018-06-10T02:19:07.878Z,100822.03
2018-06-10T02:20:12.121Z,100819.84
2018-06-10T02:21:16.324Z,100816.80
2018-06-10T02:22:20.617Z,100816.51
2018-06-10T02:23:24.816Z,100819.71
2018-06-10T02:24:29.036Z,100816.17
2018-06-10T02:25:33.243Z,100817.52
2018-06-10T02:26:37.505Z,100817.52
2018-06-10T02:27:41.944Z,100813.48
2018-06-10T02:28:46.330Z,100816.68
2018-06-10T02:29:50.593Z,100818.53
2018-06-10T02:30:54.861Z,100815.00
2018-06-10T02:31:59.087Z,100819.58
2018-06-10T02:33:03.326Z,100819.58
2018-06-10T02:34:07.551Z,100822.28
2018-06-10T02:35:11.998Z,100829.03
2018-06-10T02:36:16.317Z,100822.28
2018-06-10T02:37:20.560Z,100823.30
2018-06-10T02:38:24.923Z,100818.92
2018-06-10T02:39:29.299Z,100824.98
2018-06-10T02:40:33.591Z,100813.52
2018-06-10T02:41:37.899Z,100817.56
2018-06-10T02:42:42.107Z,100818.41
2018-06-10T02:43:46.388Z,100816.73
2018-06-10T02:44:50.572Z,100806.45
2018-06-10T02:45:54.951Z,100806.14
2018-06-10T02:46:59.388Z,100805.47
2018-06-10T02:48:03.631Z,100800.08
2018-06-10T02:49:07.953Z,100803.31
2018-06-10T02:50:12.147Z,100809.22
2018-06-10T02:51:16.397Z,100810.57
2018-06-10T02:52:20.659Z,100810.23
2018-06-10T02:53:24.927Z,100806.70
2018-06-10T02:54:29.182Z,100812.42
2018-06-10T02:55:33.396Z,100810.74
2018-06-10T02:56:37.703Z,100805.86
2018-06-10T02:57:42.089Z,100808.55
2018-06-10T02:58:46.363Z,100811.76
2018-06-10T02:59:50.964Z,100812.59
2018-06-10T03:00:55.399Z,100810.61
2018-06-10T03:01:59.715Z,100816.02
2018-06-10T03:03:03.948Z,100813.81
2018-06-10T03:04:08.555Z,100810.78
2018-06-10T03:05:12.884Z,100811.33
2018-06-10T03:06:17.194Z,100811.33
2018-06-10T03:07:21.440Z,100808.62
2018-06-10T03:08:25.666Z,100808.30
2018-06-10T03:09:29.940Z,100800.08
2018-06-10T03:10:34.159Z,100803.79
2018-06-10T03:11:38.623Z,100806.99
2018-06-10T03:12:43.000Z,100809.05
2018-06-10T03:13:47.465Z,100805.01
2018-06-10T03:14:51.690Z,100807.88
2018-06-10T03:15:55.956Z,100811.08
2018-06-10T03:17:00.409Z,100802.69
2018-06-10T03:18:04.680Z,100798.95
2018-06-10T03:19:08.915Z,100801.64
2018-06-10T03:20:13.131Z,100800.30
2018-06-10T03:21:17.455Z,100800.83
2018-06-10T03:22:21.817Z,100806.73
2018-06-10T03:23:26.228Z,100805.05
2018-06-10T03:24:30.831Z,100803.70
2018-06-10T03:25:35.282Z,100803.37
2018-06-10T03:26:39.566Z,100800.67
2018-06-10T03:27:44.113Z,100803.88
2018-06-10T03:28:48.410Z,100803.06
2018-06-10T03:29:52.608Z,100801.38
2018-06-10T03:30:56.869Z,100800.55
2018-06-10T03:32:01.172Z,100802.40
2018-06-10T03:33:05.427Z,100801.05
2018-06-10T03:34:09.698Z,100800.75
2018-06-10T03:35:13.995Z,100799.41
2018-06-10T03:36:18.485Z,100804.80
2018-06-10T03:37:22.709Z,100801.77
2018-06-10T03:38:27.076Z,100801.25
2018-06-10T03:39:31.532Z,100805.47
2018-06-10T03:40:35.996Z,100804.46
2018-06-10T03:41:40.291Z,100800.08
2018-06-10T03:42:44.533Z,100797.38
2018-06-10T03:43:48.846Z,100797.38
2018-06-10T03:44:53.337Z,100795.70
2018-06-10T03:45:57.662Z,100796.03
2018-06-10T03:47:01.902Z,100793.34
2018-06-10T03:48:06.477Z,100800.08
2018-06-10T03:49:11.068Z,100797.89
2018-06-10T03:50:15.372Z,100794.05
2018-06-10T03:51:19.619Z,100797.05
2018-06-10T03:52:24.083Z,100793.00
2018-06-10T03:53:28.306Z,100798.94
2018-06-10T03:54:32.703Z,100795.40
2018-06-10T03:55:36.941Z,100800.80
2018-06-10T03:56:41.488Z,100792.37
2018-06-10T03:57:46.031Z,100794.05
2018-06-10T03:58:50.275Z,100790.17
2018-06-10T03:59:54.959Z,100790.00
2018-06-10T04:00:59.204Z,100788.66
2018-06-10T04:02:03.688Z,100790.52
2018-06-10T04:03:07.891Z,100790.52
2018-06-10T04:04:12.063Z,100791.36
2018-06-10T04:05:16.475Z,100788.96
2018-06-10T04:06:20.753Z,100788.66
2018-06-10T04:07:24.989Z,100790.84
2018-06-10T04:08:29.220Z,100789.80
2018-06-10T04:09:33.805Z,100791.36
2018-06-10T04:10:38.080Z,100787.61
2018-06-10T04:11:42.519Z,100788.15
2018-06-10T04:12:46.736Z,100783.90
2018-06-10T04:13:51.048Z,100781.20
2018-06-10T04:14:55.288Z,100785.58
2018-06-10T04:15:59.513Z,100787.27
2018-06-10T04:17:04.500Z,100781.88
2018-06-10T04:18:08.747Z,100790.59
2018-06-10T04:19:13.102Z,100788.91
2018-06-10T04:20:17.319Z,100786.22
2018-06-10T04:21:21.937Z,100784.88
2018-06-10T04:22:26.254Z,100790.93
2018-06-10T04:23:30.729Z,100786.89
2018-06-10T04:24:34.981Z,100790.39
2018-06-10T04:25:39.292Z,100787.19
2018-06-10T04:26:43.584Z,100790.22
2018-06-10T04:27:47.907Z,100783.48
2018-06-10T04:28:52.274Z,100786.51
2018-06-10T04:29:56.597Z,100786.00
2018-06-10T04:31:00.943Z,100784.11
2018-06-10T04:32:05.225Z,100782.77
2018-06-10T04:33:11.431Z,100781.95
2018-06-10T04:34:15.747Z,100783.30
2018-06-10T04:35:20.259Z,100789.51
2018-06-10T04:36:24.507Z,100786.00
2018-06-10T04:37:28.744Z,100788.49
2018-06-10T04:38:33.113Z,100793.55
2018-06-10T04:39:37.672Z,100791.19
2018-06-10T04:40:41.919Z,100795.23
2018-06-10T04:41:46.358Z,100798.27
2018-06-10T04:42:50.643Z,100793.17
2018-06-10T04:43:55.064Z,100795.36
2018-06-10T04:44:59.343Z,100800.25
2018-06-10T04:46:03.847Z,100800.25
2018-06-10T04:47:08.142Z,100805.14
2018-06-10T04:48:12.478Z,100805.64
2018-06-10T04:49:16.752Z,100811.70
2018-06-10T04:50:20.981Z,100809.82
2018-06-10T04:51:25.408Z,100817.73
2018-06-10T04:52:29.877Z,100816.19
2018-06-10T04:53:34.106Z,100819.22
2018-06-10T04:54:38.391Z,100816.52
2018-06-10T04:55:42.632Z,100821.73
2018-06-10T04:56:47.241Z,100823.39
2018-06-10T04:57:51.568Z,100827.06
2018-06-10T04:58:56.231Z,100827.06
2018-06-10T05:00:00.694Z,100825.70
2018-06-10T05:01:04.956Z,100833.42
2018-06-10T05:02:09.147Z,100836.66
2018-06-10T05:03:13.385Z,100834.77
2018-06-10T05:04:17.636Z,100828.56
2018-06-10T05:05:22.175Z,100828.56
2018-06-10T05:06:26.649Z,100832.41
2018-06-10T05:07:30.894Z,100834.27
2018-06-10T05:08:35.184Z,100832.91
2018-06-10T05:09:39.441Z,100837.47
2018-06-10T05:10:43.706Z,100846.91
2018-06-10T05:11:48.056Z,100849.44
2018-06-10T05:12:52.677Z,100849.44
2018-06-10T05:13:56.914Z,100849.44
2018-06-10T05:15:01.168Z,100851.12
2018-06-10T05:16:05.429Z,100857.66
2018-06-10T05:17:09.642Z,100855.62
2018-06-10T05:18:13.924Z,100849.52
2018-06-10T05:19:18.187Z,100855.05
2018-06-10T05:20:22.400Z,100848.30
2018-06-10T05:21:26.850Z,100851.66
2018-06-10T05:22:31.147Z,100849.77
2018-06-10T05:23:35.668Z,100854.66
2018-06-10T05:24:39.920Z,100862.25
2018-06-10T05:25:44.326Z,100861.23
2018-06-10T05:26:48.619Z,100862.71
2018-06-10T05:27:53.012Z,100860.86
2018-06-10T05:28:57.271Z,100857.14
2018-06-10T05:30:01.714Z,100859.12
2018-06-10T05:31:05.984Z,100859.77
2018-06-10T05:32:10.280Z,100857.39
2018-06-10T05:33:14.516Z,100860.59
2018-06-10T05:34:18.903Z,100862.39
2018-06-10T05:35:23.125Z,100859.31
2018-06-10T05:36:27.460Z,100858.42
2018-06-10T05:37:31.898Z,100853.81
2018-06-10T05:38:36.069Z,100861.83
2018-06-10T05:39:40.467Z,100851.48
2018-06-10T05:40:44.734Z,100855.87
2018-06-10T05:41:49.021Z,100860.05
2018-06-10T05:42:53.297Z,100855.30
2018-06-10T05:43:57.583Z,100852.34
2018-06-10T05:45:01.805Z,100851.75
2018-06-10T05:46:06.399Z,100855.05
2018-06-10T05:47:10.700Z,100859.86
2018-06-10T05:48:14.939Z,100862.00
2018-06-10T05:49:19.307Z,100863.08
2018-06-10T05:50:23.856Z,100866.41
2018-06-10T05:51:28.093Z,100864.70
2018-06-10T05:52:32.441Z,100863.98
2018-06-10T05:53:36.723Z,100865.12
2018-06-10T05:54:40.988Z,100863.41
2018-06-10T05:55:45.249Z,100861.34
2018-06-10T05:56:49.784Z,100861.97
2018-06-10T05:57:54.024Z,100863.29
2018-06-10T05:58:58.458Z,100862.78
2018-06-10T06:00:02.789Z,100862.89
2018-06-10T06:01:07.069Z,100861.37
2018-06-10T06:02:11.324Z,100863.85
2018-06-10T06:03:15.531Z,100865.33
2018-06-10T06:04:19.800Z,100863.80
2018-06-10T06:05:24.030Z,100867.13
2018-06-10T06:06:28.248Z,100865.77
2018-06-10T06:07:32.444Z,100875.23
2018-06-10T06:08:36.689Z,100871.90
2018-06-10T06:09:40.944Z,100870.67
2018-06-10T06:10:45.183Z,100870.78
2018-06-10T06:11:49.411Z,100868.23
2018-06-10T06:12:53.619Z,100878.44
2018-06-10T06:13:57.870Z,100864.52
2018-06-10T06:15:02.433Z,100866.66
2018-06-10T06:16:06.657Z,100867.28
2018-06-10T06:17:10.898Z,100875.53
2018-06-10T06:18:15.131Z,100871.09
2018-06-10T06:19:19.395Z,100878.80
2018-06-10T06:20:23.758Z,100877.37
2018-06-10T06:21:28.330Z,100872.59
2018-06-10T06:22:32.598Z,100878.84
2018-06-10T06:23:36.963Z,100872.20
2018-06-10T06:24:41.155Z,100872.53
2018-06-10T06:25:45.425Z,100874.33
2018-06-10T06:26:49.649Z,100877.47
2018-06-10T06:27:53.838Z,100881.13
2018-06-10T06:28:58.228Z,100883.44
2018-06-10T06:30:02.506Z,100882.38
2018-06-10T06:31:06.878Z,100888.05
2018-06-10T06:32:11.067Z,100881.28
2018-06-10T06:33:15.304Z,100885.34
2018-06-10T06:34:19.739Z,100889.03
2018-06-10T06:35:23.960Z,100892.17
2018-06-10T06:36:28.204Z,100885.85
2018-06-10T06:37:32.440Z,100887.42
2018-06-10T06:38:36.868Z,100884.31
2018-06-10T06:39:41.220Z,100882.45
2018-06-10T06:40:45.737Z,100881.20
2018-06-10T06:41:49.950Z,100882.89
2018-06-10T06:42:54.149Z,100885.19
2018-06-10T06:43:58.651Z,100891.55
2018-06-10T06:45:02.910Z,100895.02
2018-06-10T06:46:07.538Z,100888.37
2018-06-10T06:47:11.856Z,100886.09
2018-06-10T06:48:16.000Z,100885.88
2018-06-10T06:49:20.240Z,100874.67
2018-06-10T06:50:25.450Z,100882.39
2018-06-10T06:51:29.625Z,100883.95
2018-06-10T06:52:33.965Z,100886.07
2018-06-10T06:53:38.646Z,100886.80
2018-06-10T06:54:43.307Z,100892.45
2018-06-10T06:55:47.826Z,100893.73
2018-06-10T06:56:52.031Z,100896.03
2018-06-10T06:57:57.255Z,100896.36
2018-06-10T06:59:01.428Z,100885.84
2018-06-10T07:00:05.869Z,100890.23
2018-06-10T07:01:10.204Z,100897.63
2018-06-10T07:02:14.943Z,100893.97
2018-06-10T07:03:19.344Z,100899.06
2018-06-10T07:04:23.914Z,100899.25
2018-06-10T07:05:28.184Z,100896.11
2018-06-10T07:06:32.369Z,100894.95
2018-06-10T07:07:37.090Z,100890.27
2018-06-10T07:08:41.398Z,100894.52
2018-06-10T07:09:46.074Z,100892.22
2018-06-10T07:10:50.265Z,100889.73
2018-06-10T07:11:54.571Z,100889.08
2018-06-10T07:12:59.460Z,100896.06
2018-06-10T07:14:03.861Z,100887.61
2018-06-10T07:15:08.156Z,100891.67
2018-06-10T07:16:12.389Z,100887.61
2018-06-10T07:17:19.724Z,100894.60
2018-06-10T07:18:24.035Z,100897.72
2018-06-10T07:19:28.393Z,100893.33
2018-06-10T07:20:32.828Z,100894.58
2018-06-10T07:21:37.044Z,100899.15
2018-06-10T07:22:41.246Z,100901.75
2018-06-10T07:23:45.553Z,100898.20
2018-06-10T07:24:49.972Z,100898.90
2018-06-10T07:25:54.252Z,100896.70
2018-06-10T07:26:58.423Z,100895.06
2018-06-10T07:28:02.642Z,100897.77
2018-06-10T07:29:07.131Z,100894.41
2018-06-10T07:30:17.870Z,100900.66
2018-06-10T07:31:22.236Z,100894.63
2018-06-10T07:32:26.828Z,100893.45
2018-06-10T07:33:31.639Z,100894.52
2018-06-10T07:34:35.850Z,100892.61
2018-06-10T07:35:40.218Z,100895.54
2018-06-10T07:36:44.423Z,100893.16
2018-06-10T07:37:48.678Z,100891.26
2018-06-10T07:38:52.892Z,100894.52
2018-06-10T07:39:57.256Z,100900.22
2018-06-10T07:41:01.580Z,100896.67
2018-06-10T07:42:05.886Z,100893.67
2018-06-10T07:43:10.315Z,100893.16
2018-06-10T07:44:14.522Z,100893.97
2018-06-10T07:45:18.816Z,100893.16
2018-06-10T07:46:23.176Z,100897.22
2018-06-10T07:47:27.455Z,100902.63
2018-06-10T07:48:32.571Z,100894.37
2018-06-10T07:49:36.820Z,100897.81
2018-06-10T07:50:41.062Z,100900.41
2018-06-10T07:51:45.515Z,100907.06
2018-06-10T07:52:49.744Z,100907.44
2018-06-10T07:53:53.955Z,100904.31
2018-06-10T07:54:58.210Z,100907.72
2018-06-10T07:56:02.460Z,100906.05
2018-06-10T07:57:06.856Z,100911.45
2018-06-10T07:58:11.082Z,100907.28
2018-06-10T07:59:17.619Z,100908.97
2018-06-10T08:00:22.017Z,100907.61
2018-06-10T08:01:26.448Z,100905.42
2018-06-10T08:02:30.949Z,100906.26
2018-06-10T08:03:35.244Z,100902.20
2018-06-10T08:04:39.617Z,100907.20
2018-06-10T08:05:44.399Z,100913.25
2018-06-10T08:06:48.810Z,100909.33
2018-06-10T08:07:53.036Z,100909.77
2018-06-10T08:09:04.200Z,100908.31
2018-06-10T08:10:08.847Z,100910.21
2018-06-10T08:11:13.456Z,100912.33
2018-06-10T08:12:18.442Z,100909.66
2018-06-10T08:13:22.660Z,100911.55
2018-06-10T08:14:28.239Z,100905.13
2018-06-10T08:15:32.457Z,100905.16
2018-06-10T08:16:36.675Z,100897.06
2018-06-10T08:17:40.897Z,100901.36
2018-06-10T08:18:45.329Z,100898.05
2018-06-10T08:19:49.557Z,100896.72
2018-06-10T08:20:53.791Z,100901.83
2018-06-10T08:21:58.168Z,100898.52
2018-06-10T08:23:02.380Z,100898.63
2018-06-10T08:24:06.711Z,100896.02
2018-06-10T08:25:11.015Z,100895.72
2018-06-10T08:26:15.474Z,100901.66
2018-06-10T08:27:19.740Z,100900.72
2018-06-10T08:28:23.978Z,100899.55
2018-06-10T08:29:28.595Z,100899.55
2018-06-10T08:30:32.868Z,100900.06
2018-06-10T08:31:37.132Z,100901.94
2018-06-10T08:32:41.445Z,100900.39
2018-06-10T08:33:45.635Z,100893.42
2018-06-10T08:34:50.076Z,100889.46
2018-06-10T08:35:54.424Z,100888.95
2018-06-10T08:36:58.728Z,100883.63
2018-06-10T08:38:02.940Z,100882.48
2018-06-10T08:39:08.908Z,100884.06
2018-06-10T08:40:13.180Z,100890.52
2018-06-10T08:41:17.548Z,100885.72
2018-06-10T08:42:21.839Z,100881.27
2018-06-10T08:43:26.040Z,100884.59
2018-06-10T08:44:30.351Z,100885.53
2018-06-10T08:45:34.736Z,100881.05
2018-06-10T08:46:39.011Z,100883.56
2018-06-10T08:47:43.394Z,100889.92
2018-06-10T08:48:47.572Z,100887.64
2018-06-10T08:49:51.779Z,100891.99
2018-06-10T08:50:56.053Z,100886.57
2018-06-10T08:52:00.325Z,100889.64
2018-06-10T08:53:04.593Z,100892.67
2018-06-10T08:54:09.110Z,100892.34
2018-06-10T08:55:13.418Z,100891.99
2018-06-10T08:56:17.663Z,100892.51
2018-06-10T08:57:21.952Z,100891.70
2018-06-10T08:58:26.567Z,100886.57
2018-06-10T08:59:30.882Z,100896.06
2018-06-10T09:00:35.438Z,100894.55
2018-06-10T09:01:39.764Z,100892.45
2018-06-10T09:02:44.114Z,100893.61
2018-06-10T09:03:49.120Z,100897.03
2018-06-10T09:04:54.001Z,100896.41
2018-06-10T09:05:58.427Z,100895.58
2018-06-10T09:07:02.757Z,100894.96
2018-06-10T09:08:07.049Z,100896.92
2018-06-10T09:09:11.448Z,100896.59
2018-06-10T09:10:15.794Z,100898.49
2018-06-10T09:11:20.243Z,100897.00
2018-06-10T09:12:24.617Z,100894.41
2018-06-10T09:13:29.658Z,100895.95
2018-06-10T09:14:33.992Z,100892.38
2018-06-10T09:15:38.359Z,100895.31
2018-06-10T09:16:43.107Z,100893.84
2018-06-10T09:17:48.439Z,100892.06
2018-06-10T09:18:53.142Z,100892.19
2018-06-10T09:19:57.866Z,100891.95
2018-06-10T09:21:02.169Z,100891.34
2018-06-10T09:22:06.471Z,100899.81
2018-06-10T09:23:11.382Z,100898.97
2018-06-10T09:24:16.188Z,100896.13
2018-06-10T09:25:21.206Z,100899.17
2018-06-10T09:26:25.424Z,100902.20
2018-06-10T09:27:30.020Z,100903.13
2018-06-10T09:28:34.561Z,100908.89
2018-06-10T09:29:38.972Z,100901.15
2018-06-10T09:30:43.456Z,100899.45
2018-06-10T09:31:48.131Z,100899.62
2018-06-10T09:32:52.433Z,100900.67
2018-06-10T09:33:57.075Z,100899.41
2018-06-10T09:35:01.343Z,100902.73
2018-06-10T09:36:05.818Z,100901.08
2018-06-10T09:37:10.331Z,100899.41
2018-06-10T09:38:14.708Z,100901.08
2018-06-10T09:39:19.684Z,100901.08
2018-06-10T09:40:23.932Z,100902.53
2018-06-10T09:41:28.239Z,100900.22
2018-06-10T09:42:32.698Z,100903.02
2018-06-10T09:43:37.056Z,100899.78
2018-06-10T09:44:42.228Z,100895.19
2018-06-10T09:45:46.799Z,100896.31
2018-06-10T09:46:51.187Z,100892.84
2018-06-10T09:47:55.582Z,100888.05
2018-06-10T09:48:59.840Z,100896.37
2018-06-10T09:50:04.140Z,100895.94
2018-06-10T09:51:08.408Z,100886.83
2018-06-10T09:52:13.125Z,100887.75
2018-06-10T09:53:17.462Z,100890.06
2018-06-10T09:54:22.575Z,100889.66
2018-06-10T09:55:27.143Z,100889.73
2018-06-10T09:56:31.362Z,100890.66
2018-06-10T09:57:35.641Z,100888.55
2018-06-10T09:58:40.156Z,100889.62
2018-06-10T09:59:44.552Z,100894.10
2018-06-10T10:00:49.468Z,100893.81
2018-06-10T10:01:53.759Z,100891.53
2018-06-10T10:02:59.156Z,100889.42
2018-06-10T10:04:03.643Z,100901.05
2018-06-10T10:05:07.996Z,100894.05
2018-06-10T10:06:12.351Z,100898.80
2018-06-10T10:07:16.596Z,100897.56
2018-06-10T10:08:21.109Z,100899.87
2018-06-10T10:09:25.321Z,100898.42
2018-06-10T10:10:29.825Z,100901.66
2018-06-10T10:11:34.306Z,100894.23
2018-06-10T10:12:38.609Z,100901.58
2018-06-10T10:13:43.090Z,100897.70
2018-06-10T10:14:47.388Z,100896.86
2018-06-10T10:15:51.583Z,100901.25
2018-06-10T10:16:55.890Z,100896.34
2018-06-10T10:18:00.148Z,100897.70
2018-06-10T10:19:04.424Z,100894.78
2018-06-10T10:20:08.668Z,100898.63
2018-06-10T10:21:12.933Z,100895.70
2018-06-10T10:22:17.570Z,100902.59
2018-06-10T10:23:21.871Z,100905.06
2018-06-10T10:24:26.128Z,100902.47
2018-06-10T10:25:30.448Z,100904.23
2018-06-10T10:26:34.751Z,100903.05
2018-06-10T10:27:39.108Z,100903.25
2018-06-10T10:28:43.323Z,100896.57
2018-06-10T10:29:47.690Z,100892.26
2018-06-10T10:30:51.936Z,100898.33
2018-06-10T10:31:56.296Z,100894.66
2018-06-10T10:33:00.536Z,100896.94
2018-06-10T10:34:04.831Z,100889.18
2018-06-10T10:35:09.059Z,100893.10
2018-06-10T10:36:13.323Z,100898.73
2018-06-10T10:37:17.591Z,100899.97
2018-06-10T10:38:21.883Z,100896.18
2018-06-10T10:39:26.452Z,100897.09
2018-06-10T10:40:30.717Z,100893.86
2018-06-10T10:41:35.118Z,100896.45
2018-06-10T10:42:39.350Z,100898.21
2018-06-10T10:43:43.934Z,100898.61
2018-06-10T10:44:48.419Z,100900.64
2018-06-10T10:45:52.641Z,100897.36
2018-06-10T10:46:56.839Z,100898.14
2018-06-10T10:48:01.077Z,100902.44
2018-06-10T10:49:05.436Z,100902.52
2018-06-10T10:50:09.737Z,100897.67
2018-06-10T10:51:13.958Z,100896.11
2018-06-10T10:52:18.147Z,100900.47
2018-06-10T10:53:22.608Z,100896.39
2018-06-10T10:54:27.092Z,100897.75
2018-06-10T10:55:31.331Z,100896.11
2018-06-10T10:56:35.564Z,100894.44
2018-06-10T10:57:40.176Z,100898.52
2018-06-10T10:58:44.379Z,100890.56
2018-06-10T10:59:48.647Z,100894.36
2018-06-10T11:00:53.115Z,100893.52
2018-06-10T11:01:57.373Z,100883.40
2018-06-10T11:03:01.581Z,100885.28
2018-06-10T11:04:05.850Z,100887.16
2018-06-10T11:05:10.182Z,100884.76
2018-06-10T11:06:14.492Z,100890.48
2018-06-10T11:07:18.800Z,100888.84
2018-06-10T11:08:24.256Z,100891.24
2018-06-10T11:09:28.537Z,100898.05
2018-06-10T11:10:32.947Z,100888.20
2018-06-10T11:11:37.412Z,100896.37
2018-06-10T11:12:44.966Z,100895.22
2018-06-10T11:13:49.415Z,100899.30
2018-06-10T11:14:53.666Z,100898.14
2018-06-10T11:15:57.926Z,100898.74
2018-06-10T11:17:02.507Z,100892.08
2018-06-10T11:18:06.735Z,100891.92
2018-06-10T11:19:11.061Z,100893.78
2018-06-10T11:20:15.943Z,100887.97
2018-06-10T11:21:20.626Z,100885.39
2018-06-10T11:22:26.041Z,100885.58
2018-06-10T11:23:30.600Z,100882.09
2018-06-10T11:24:34.831Z,100884.36
2018-06-10T11:25:39.149Z,100884.36
2018-06-10T11:26:44.593Z,100886.34
2018-06-10T11:27:49.452Z,100887.71
2018-06-10T11:28:53.962Z,100884.67
2018-06-10T11:29:59.043Z,100894.65
2018-06-10T11:31:03.307Z,100884.21
2018-06-10T11:32:07.678Z,100890.11
2018-06-10T11:33:12.375Z,100889.19
2018-06-10T11:34:16.911Z,100890.45
2018-06-10T11:35:21.168Z,100883.36
2018-06-10T11:36:25.391Z,100881.69
2018-06-10T11:37:30.145Z,100886.29
2018-06-10T11:38:34.408Z,100884.65
2018-06-10T11:39:38.922Z,100884.65
2018-06-10T11:40:45.197Z,100880.12
2018-06-10T11:41:50.092Z,100885.64
2018-06-10T11:42:54.935Z,100890.55
2018-06-10T11:44:00.105Z,100882.67
2018-06-10T11:45:04.398Z,100883.52
2018-06-10T11:46:09.136Z,100881.94
2018-06-10T11:47:13.379Z,100877.72
2018-06-10T11:48:17.687Z,100881.12
2018-06-10T11:49:21.894Z,100883.91
2018-06-10T11:50:26.140Z,100878.02
2018-06-10T11:51:30.351Z,100878.72
2018-06-10T11:52:34.643Z,100881.30
2018-06-10T11:53:38.897Z,100883.26
2018-06-10T11:54:43.140Z,100881.69
2018-06-10T11:55:47.303Z,100883.33
2018-06-10T11:56:51.524Z,100877.46
2018-06-10T11:57:55.810Z,100880.47
2018-06-10T11:59:00.035Z,100884.63
2018-06-10T12:00:04.613Z,100878.05
2018-06-10T12:01:09.111Z,100876.38
2018-06-10T12:02:13.347Z,100875.33
2018-06-10T12:03:17.528Z,100873.27
2018-06-10T12:04:21.920Z,100875.40
2018-06-10T12:05:26.194Z,100882.14
2018-06-10T12:06:30.421Z,100875.47
2018-06-10T12:07:34.693Z,100873.80
2018-06-10T12:08:38.902Z,100874.25
2018-06-10T12:09:43.279Z,100876.97
2018-06-10T12:10:47.534Z,100872.57
2018-06-10T12:11:51.915Z,100884.54
2018-06-10T12:12:56.322Z,100878.19
2018-06-10T12:14:00.614Z,100885.72
2018-06-10T12:15:04.946Z,100882.72